createdAt,value
2019-04-29T00:00:02.915Z,5.6
2019-04-29T00:01:03.259Z,5.5
2019-04-29T00:02:03.782Z,5.6
2019-04-29T00:03:02.965Z,5.6
2019-04-29T00:04:02.776Z,5.4
2019-04-29T00:05:03.097Z,5.4
2019-04-29T00:06:02.829Z,5.3
2019-04-29T00:07:03.656Z,5.1
2019-04-29T00:08:03.697Z,5.1
2019-04-29T00:09:03.521Z,5
2019-04-29T00:10:03.581Z,4.9
2019-04-29T00:11:03.903Z,4.9
2019-04-29T00:12:02.941Z,4.9
2019-04-29T00:13:03.897Z,5
2019-04-29T00:14:03.729Z,4.9
2019-04-29T00:15:03.501Z,4.9
2019-04-29T00:16:03.556Z,4.9
2019-04-29T00:17:03.460Z,5
2019-04-29T00:18:03.446Z,5
2019-04-29T00:19:03.515Z,4.9
2019-04-29T00:20:03.408Z,5.1
2019-04-29T00:21:03.281Z,5.1
2019-04-29T00:22:03.196Z,4.8
2019-04-29T00:23:03.395Z,4.8
2019-04-29T00:24:04.518Z,4.7
2019-04-29T00:25:03.380Z,4.8
2019-04-29T00:26:03.283Z,4.6
2019-04-29T00:27:03.659Z,4.7
2019-04-29T00:28:03.269Z,4.8
2019-04-29T00:29:03.563Z,4.8
2019-04-29T00:30:03.522Z,4.8
2019-04-29T00:31:02.814Z,4.6
2019-04-29T00:32:03.193Z,4.6
2019-04-29T00:33:03.020Z,4.6
2019-04-29T00:34:03.070Z,4.6
2019-04-29T00:35:03.018Z,4.8
2019-04-29T00:36:03.277Z,4.7
2019-04-29T00:37:02.720Z,4.5
2019-04-29T00:38:02.782Z,4.3
2019-04-29T00:39:02.855Z,4.2
2019-04-29T00:40:03.603Z,4.2
2019-04-29T00:41:03.386Z,4.2
2019-04-29T00:42:03.193Z,4.3
2019-04-29T00:43:02.915Z,4.3
2019-04-29T00:44:03.031Z,4.3
2019-04-29T00:45:02.956Z,4.3
2019-04-29T00:46:03.033Z,4.3
2019-04-29T00:47:02.882Z,4.3
2019-04-29T00:48:02.809Z,4.4
2019-04-29T00:49:03.619Z,4.4
2019-04-29T00:50:03.923Z,4.3
2019-04-29T00:51:03.811Z,4.4
2019-04-29T00:52:03.503Z,4.4
2019-04-29T00:53:03.643Z,4.5
2019-04-29T00:54:03.488Z,4.6
2019-04-29T00:55:03.070Z,4.6
2019-04-29T00:56:03.389Z,4.6
2019-04-29T00:57:03.067Z,4.6
2019-04-29T00:58:03.085Z,4.4
2019-04-29T00:59:03.260Z,4.4
2019-04-29T01:00:03.246Z,4.4
2019-04-29T01:01:03.304Z,4.3
2019-04-29T01:02:02.990Z,4.3
2019-04-29T01:03:03.100Z,4.3
2019-04-29T01:04:03.176Z,4.4
2019-04-29T01:05:03.097Z,4.5
2019-04-29T01:06:03.472Z,4.5
2019-04-29T01:07:02.902Z,4.5
2019-04-29T01:08:02.944Z,4.5
2019-04-29T01:09:02.948Z,4.5
2019-04-29T01:10:03.593Z,4.5
2019-04-29T01:11:03.779Z,4.6
2019-04-29T01:12:03.649Z,4.6
2019-04-29T01:13:03.446Z,4.6
2019-04-29T01:14:03.666Z,4.6
2019-04-29T01:15:03.350Z,4.6
2019-04-29T01:16:03.486Z,4.6
2019-04-29T01:17:03.352Z,4.7
2019-04-29T01:18:03.482Z,4.7
2019-04-29T01:19:04.194Z,4.7
2019-04-29T01:20:03.346Z,4.7
2019-04-29T01:21:03.025Z,4.7
2019-04-29T01:22:03.071Z,4.8
2019-04-29T01:23:03.033Z,4.8
2019-04-29T01:24:02.854Z,4.8
2019-04-29T01:25:02.818Z,4.7
2019-04-29T01:26:03.766Z,4.7
2019-04-29T01:27:02.936Z,4.7
2019-04-29T01:28:02.667Z,4.6
2019-04-29T01:29:02.880Z,4.6
2019-04-29T01:30:03.628Z,4.6
2019-04-29T01:31:03.007Z,4.7
2019-04-29T01:32:03.618Z,4.6
2019-04-29T01:33:04.003Z,4.6
2019-04-29T01:34:03.555Z,4.6
2019-04-29T01:35:02.881Z,4.6
2019-04-29T01:36:03.409Z,4.5
2019-04-29T01:37:03.694Z,4.6
2019-04-29T01:38:03.686Z,4.6
2019-04-29T01:39:03.385Z,4.6
2019-04-29T01:40:03.506Z,4.6
2019-04-29T01:41:03.306Z,4.6
2019-04-29T01:42:03.378Z,4.6
2019-04-29T01:43:03.137Z,4.7
2019-04-29T01:44:03.544Z,4.8
2019-04-29T01:45:03.037Z,4.6
2019-04-29T01:46:03.335Z,4.6
2019-04-29T01:47:03.116Z,4.6
2019-04-29T01:48:03.581Z,4.6
2019-04-29T01:49:03.335Z,4.6
2019-04-29T01:50:03.083Z,4.6
2019-04-29T01:51:03.078Z,4.6
2019-04-29T01:52:02.940Z,4.6
2019-04-29T01:53:02.978Z,4.7
2019-04-29T01:54:02.945Z,4.7
2019-04-29T01:55:02.821Z,4.7
2019-04-29T01:56:03.595Z,4.6
2019-04-29T01:57:03.826Z,4.8
2019-04-29T01:58:03.818Z,4.7
2019-04-29T01:59:02.965Z,4.7
2019-04-29T02:00:03.797Z,4.6
2019-04-29T02:01:03.108Z,4.6
2019-04-29T02:02:03.810Z,4.6
2019-04-29T02:03:03.438Z,4.6
2019-04-29T02:04:03.651Z,4.6
2019-04-29T02:05:03.452Z,4.5
2019-04-29T02:06:03.330Z,4.6
2019-04-29T02:07:03.230Z,4.6
2019-04-29T02:08:03.038Z,4.6
2019-04-29T02:09:02.914Z,4.6
2019-04-29T02:10:03.686Z,4.6
2019-04-29T02:11:03.290Z,4.6
2019-04-29T02:12:03.206Z,4.5
2019-04-29T02:13:03.173Z,4.6
2019-04-29T02:14:02.889Z,4.6
2019-04-29T02:15:03.029Z,4.5
2019-04-29T02:16:02.711Z,4.6
2019-04-29T02:17:03.744Z,4.6
2019-04-29T02:18:03.730Z,4.6
2019-04-29T02:19:03.034Z,4.6
2019-04-29T02:20:03.789Z,4.7
2019-04-29T02:21:03.410Z,4.6
2019-04-29T02:22:03.422Z,4.7
2019-04-29T02:23:03.497Z,4.7
2019-04-29T02:24:03.425Z,4.7
2019-04-29T02:25:03.547Z,4.8
2019-04-29T02:26:03.655Z,4.8
2019-04-29T02:27:05.973Z,4.8
2019-04-29T02:28:03.125Z,4.8
2019-04-29T02:29:03.229Z,4.8
2019-04-29T02:30:03.117Z,4.8
2019-04-29T02:31:03.052Z,4.9
2019-04-29T02:32:03.153Z,4.9
2019-04-29T02:33:03.114Z,4.9
2019-04-29T02:34:03.044Z,4.9
2019-04-29T02:35:03.081Z,4.9
2019-04-29T02:36:02.927Z,4.9
2019-04-29T02:37:02.911Z,4.9
2019-04-29T02:38:02.851Z,5
2019-04-29T02:39:02.899Z,5
2019-04-29T02:40:03.781Z,5.1
2019-04-29T02:41:03.545Z,5.1
2019-04-29T02:42:03.514Z,5.1
2019-04-29T02:43:03.559Z,5.1
2019-04-29T02:44:03.608Z,5.1
2019-04-29T02:45:03.752Z,5.1
2019-04-29T02:46:03.212Z,5.1
2019-04-29T02:47:03.420Z,5.1
2019-04-29T02:48:03.312Z,5.1
2019-04-29T02:49:03.703Z,5.1
2019-04-29T02:50:03.524Z,5.1
2019-04-29T02:51:04.050Z,5.2
2019-04-29T02:52:03.173Z,5.3
2019-04-29T02:53:03.173Z,5.2
2019-04-29T02:54:02.902Z,5.2
2019-04-29T02:55:02.796Z,5.2
2019-04-29T02:56:03.030Z,5.2
2019-04-29T02:57:02.929Z,5.3
2019-04-29T02:58:03.081Z,5.3
2019-04-29T02:59:03.943Z,5.3
2019-04-29T03:00:03.010Z,5.3
2019-04-29T03:01:03.755Z,5.3
2019-04-29T03:02:02.988Z,5.4
2019-04-29T03:03:03.366Z,5.3
2019-04-29T03:04:03.036Z,5.3
2019-04-29T03:05:03.317Z,5.4
2019-04-29T03:06:03.734Z,5.4
2019-04-29T03:07:03.609Z,5.4
2019-04-29T03:08:03.803Z,5.4
2019-04-29T03:09:03.725Z,5.4
2019-04-29T03:10:03.948Z,5.4
2019-04-29T03:11:03.524Z,5.4
2019-04-29T03:12:03.620Z,5.4
2019-04-29T03:13:03.410Z,5.4
2019-04-29T03:14:03.162Z,5.4
2019-04-29T03:15:03.495Z,5.4
2019-04-29T03:16:03.241Z,5.5
2019-04-29T03:17:03.309Z,5.5
2019-04-29T03:18:03.129Z,5.5
2019-04-29T03:19:03.195Z,5.5
2019-04-29T03:20:02.959Z,5.5
2019-04-29T03:21:03.226Z,5.5
2019-04-29T03:22:02.982Z,5.5
2019-04-29T03:23:03.372Z,0
2019-04-29T03:24:03.114Z,0
2019-04-29T03:25:03.401Z,0
2019-04-29T03:26:02.985Z,5.4
2019-04-29T03:27:03.753Z,5.4
2019-04-29T03:28:02.894Z,5.4
2019-04-29T03:29:03.644Z,5.5
2019-04-29T03:30:03.740Z,5.6
2019-04-29T03:31:03.829Z,5.4
2019-04-29T03:32:03.846Z,5.4
2019-04-29T03:33:03.972Z,5.5
2019-04-29T03:34:02.910Z,5.5
2019-04-29T03:35:03.531Z,5.5
2019-04-29T03:36:03.417Z,5.5
2019-04-29T03:37:03.394Z,5.4
2019-04-29T03:38:03.422Z,5.4
2019-04-29T03:39:03.541Z,5.4
2019-04-29T03:40:03.396Z,5.4
2019-04-29T03:41:03.750Z,5.4
2019-04-29T03:42:07.698Z,5.4
2019-04-29T03:43:03.408Z,5.4
2019-04-29T03:44:03.185Z,5.5
2019-04-29T03:45:03.466Z,5.5
2019-04-29T03:46:03.361Z,5.6
2019-04-29T03:47:03.295Z,5.6
2019-04-29T03:48:03.353Z,5.6
2019-04-29T03:49:03.082Z,5.6
2019-04-29T03:50:03.142Z,5.6
2019-04-29T03:51:03.778Z,5.6
2019-04-29T03:52:03.005Z,5.5
2019-04-29T03:53:02.926Z,5.6
2019-04-29T03:54:02.917Z,5.6
2019-04-29T03:55:02.847Z,5.6
2019-04-29T03:56:02.876Z,5.6
2019-04-29T03:57:02.952Z,5.6
2019-04-29T03:58:03.413Z,5.6
2019-04-29T03:59:03.919Z,5.6
2019-04-29T04:00:03.689Z,5.7
2019-04-29T04:01:03.518Z,5.7
2019-04-29T04:02:03.422Z,5.7
2019-04-29T04:03:03.722Z,5.7
2019-04-29T04:04:03.393Z,5.8
2019-04-29T04:05:03.588Z,5.7
2019-04-29T04:06:03.459Z,5.7
2019-04-29T04:07:04.446Z,5.8
2019-04-29T04:08:03.195Z,5.8
2019-04-29T04:09:06.825Z,5.8
2019-04-29T04:10:03.396Z,5.7
2019-04-29T04:11:03.173Z,5.8
2019-04-29T04:12:03.244Z,5.8
2019-04-29T04:13:03.145Z,5.8
2019-04-29T04:14:02.912Z,5.8
2019-04-29T04:15:03.280Z,5.8
2019-04-29T04:16:03.229Z,5.8
2019-04-29T04:17:02.986Z,5.8
2019-04-29T04:18:02.930Z,5.8
2019-04-29T04:19:02.973Z,5.8
2019-04-29T04:20:02.870Z,5.9
2019-04-29T04:21:03.883Z,5.8
2019-04-29T04:22:03.562Z,5.8
2019-04-29T04:23:03.052Z,5.9
2019-04-29T04:24:03.334Z,5.9
2019-04-29T04:25:03.737Z,5.9
2019-04-29T04:26:03.725Z,5.9
2019-04-29T04:27:03.588Z,5.9
2019-04-29T04:28:03.290Z,5.9
2019-04-29T04:29:03.347Z,5.9
2019-04-29T04:30:03.690Z,5.9
2019-04-29T04:31:07.431Z,5.9
2019-04-29T04:32:03.001Z,5.9
2019-04-29T04:33:02.990Z,6
2019-04-29T04:34:03.274Z,6
2019-04-29T04:35:03.037Z,6
2019-04-29T04:36:03.515Z,6.1
2019-04-29T04:37:03.665Z,6
2019-04-29T04:38:03.105Z,6.1
2019-04-29T04:39:03.098Z,6
2019-04-29T04:40:03.219Z,6.1
2019-04-29T04:41:02.885Z,6
2019-04-29T04:42:03.058Z,6.1
2019-04-29T04:43:03.033Z,6
2019-04-29T04:44:02.894Z,6
2019-04-29T04:45:02.958Z,6.1
2019-04-29T04:46:03.793Z,6.1
2019-04-29T04:47:04.335Z,6.1
2019-04-29T04:48:03.817Z,6.1
2019-04-29T04:49:03.455Z,6.1
2019-04-29T04:50:03.617Z,6.1
2019-04-29T04:51:03.170Z,6.1
2019-04-29T04:52:02.984Z,6.1
2019-04-29T04:53:03.254Z,6.1
2019-04-29T04:54:03.240Z,6.1
2019-04-29T04:55:03.253Z,6.1
2019-04-29T04:56:03.181Z,6.1
2019-04-29T04:57:03.179Z,6.2
2019-04-29T04:58:03.268Z,6.1
2019-04-29T04:59:02.988Z,6.1
2019-04-29T05:00:03.135Z,6.1
2019-04-29T05:01:03.101Z,6.3
2019-04-29T05:02:03.021Z,6.3
2019-04-29T05:03:03.622Z,6.3
2019-04-29T05:04:02.799Z,6.3
2019-04-29T05:05:03.968Z,6.3
2019-04-29T05:06:03.582Z,6.3
2019-04-29T05:07:02.954Z,6.4
2019-04-29T05:08:02.859Z,6.3
2019-04-29T05:09:04.022Z,6.4
2019-04-29T05:10:03.840Z,6.4
2019-04-29T05:11:03.315Z,6.4
2019-04-29T05:12:03.900Z,6.4
2019-04-29T05:13:03.456Z,6.4
2019-04-29T05:14:02.900Z,6.4
2019-04-29T05:15:03.311Z,6.4
2019-04-29T05:16:03.109Z,6.5
2019-04-29T05:17:03.394Z,6.5
2019-04-29T05:18:03.325Z,6.5
2019-04-29T05:19:03.361Z,6.6
2019-04-29T05:20:03.256Z,6.5
2019-04-29T05:21:03.194Z,6.6
2019-04-29T05:22:03.423Z,6.6
2019-04-29T05:23:03.169Z,6.6
2019-04-29T05:24:03.091Z,6.6
2019-04-29T05:25:03.482Z,6.6
2019-04-29T05:26:03.045Z,6.6
2019-04-29T05:27:02.768Z,6.6
2019-04-29T05:28:03.016Z,6.6
2019-04-29T05:29:02.839Z,6.7
2019-04-29T05:30:03.724Z,6.8
2019-04-29T05:31:03.612Z,6.9
2019-04-29T05:32:02.863Z,6.9
2019-04-29T05:33:03.422Z,6.9
2019-04-29T05:34:03.557Z,7
2019-04-29T05:35:03.724Z,7.1
2019-04-29T05:36:04.069Z,7.1
2019-04-29T05:37:03.293Z,7.1
2019-04-29T05:38:03.643Z,7.2
2019-04-29T05:39:03.525Z,7.3
2019-04-29T05:40:03.404Z,7.4
2019-04-29T05:41:03.501Z,7.4
2019-04-29T05:42:03.090Z,7.5
2019-04-29T05:43:05.346Z,7.6
2019-04-29T05:44:02.953Z,7.6
2019-04-29T05:45:03.312Z,7.7
2019-04-29T05:46:03.112Z,7.8
2019-04-29T05:47:03.124Z,7.9
2019-04-29T05:48:02.945Z,8.1
2019-04-29T05:49:09.070Z,8.1
2019-04-29T05:50:04.913Z,8.1
2019-04-29T05:51:02.911Z,8.2
2019-04-29T05:52:03.369Z,8.2
2019-04-29T05:53:03.819Z,8.3
2019-04-29T05:54:03.685Z,8.3
2019-04-29T05:55:03.713Z,8.4
2019-04-29T05:56:02.879Z,8.6
2019-04-29T05:57:03.558Z,8.6
2019-04-29T05:58:04.047Z,8.7
2019-04-29T05:59:03.500Z,8.8
2019-04-29T06:00:03.623Z,9
2019-04-29T06:01:03.271Z,9
2019-04-29T06:02:03.637Z,9
2019-04-29T06:03:03.571Z,8.8
2019-04-29T06:04:03.285Z,8.7
2019-04-29T06:05:03.391Z,8.7
2019-04-29T06:06:03.345Z,8.9
2019-04-29T06:07:03.539Z,9.3
2019-04-29T06:08:03.680Z,9.6
2019-04-29T06:09:03.693Z,9.8
2019-04-29T06:10:03.514Z,10
2019-04-29T06:11:03.391Z,10
2019-04-29T06:12:02.991Z,10
2019-04-29T06:13:03.400Z,9.6
2019-04-29T06:14:03.223Z,9.6
2019-04-29T06:15:03.146Z,9.4
2019-04-29T06:16:03.165Z,9.4
2019-04-29T06:17:07.948Z,9.4
2019-04-29T06:18:02.901Z,9.4
2019-04-29T06:19:06.161Z,9.3
2019-04-29T06:20:03.355Z,9.4
2019-04-29T06:21:09.884Z,9.4
2019-04-29T06:22:04.141Z,9.3
2019-04-29T06:23:02.864Z,9.2
2019-04-29T06:24:06.510Z,9.1
2019-04-29T06:25:03.229Z,9.1
2019-04-29T06:26:03.590Z,9.2
2019-04-29T06:27:03.443Z,9.3
2019-04-29T06:28:03.726Z,9.4
2019-04-29T06:29:06.271Z,9.4
2019-04-29T06:30:05.095Z,9.3
2019-04-29T06:31:03.313Z,9.5
2019-04-29T06:32:03.333Z,9.6
2019-04-29T06:33:03.581Z,9.6
2019-04-29T06:34:06.703Z,9.8
2019-04-29T06:35:03.567Z,9.8
2019-04-29T06:36:03.128Z,9.7
2019-04-29T06:37:03.257Z,9.6
2019-04-29T06:38:03.421Z,9.6
2019-04-29T06:39:03.229Z,9.5
2019-04-29T06:40:03.147Z,9.5
2019-04-29T06:41:10.850Z,9.6
2019-04-29T06:42:03.004Z,9.8
2019-04-29T06:43:03.295Z,9.8
2019-04-29T06:44:16.782Z,9.6
2019-04-29T06:45:03.287Z,9.5
2019-04-29T06:46:03.117Z,9.6
2019-04-29T06:47:03.031Z,9.6
2019-04-29T06:48:03.031Z,9.7
2019-04-29T06:49:11.023Z,9.6
2019-04-29T06:50:03.098Z,9.6
2019-04-29T06:51:03.690Z,9.6
2019-04-29T06:52:02.865Z,9.6
2019-04-29T06:53:04.535Z,9.6
2019-04-29T06:54:03.616Z,9.7
2019-04-29T06:55:03.665Z,9.7
2019-04-29T06:56:03.259Z,9.8
2019-04-29T06:57:03.616Z,9.8
2019-04-29T06:58:03.859Z,9.8
2019-04-29T06:59:03.420Z,9.8
2019-04-29T07:00:03.485Z,9.6
2019-04-29T07:01:03.509Z,9.6
2019-04-29T07:02:03.510Z,9.7
2019-04-29T07:03:03.216Z,9.9
2019-04-29T07:04:03.321Z,9.8
2019-04-29T07:05:03.470Z,9.8
2019-04-29T07:06:03.019Z,9.8
2019-04-29T07:07:03.820Z,9.9
2019-04-29T07:08:02.795Z,9.8
2019-04-29T07:09:03.450Z,9.8
2019-04-29T07:10:02.749Z,9.7
2019-04-29T07:11:03.390Z,9.8
2019-04-29T07:12:03.196Z,9.8
2019-04-29T07:13:02.950Z,9.9
2019-04-29T07:14:02.846Z,9.9
2019-04-29T07:15:03.071Z,9.9
2019-04-29T07:16:03.625Z,9.9
2019-04-29T07:17:07.309Z,9.8
2019-04-29T07:18:02.930Z,9.7
2019-04-29T07:19:03.951Z,9.6
2019-04-29T07:20:03.785Z,9.6
2019-04-29T07:21:03.369Z,9.6
2019-04-29T07:22:03.764Z,9.6
2019-04-29T07:23:03.662Z,9.7
2019-04-29T07:24:03.287Z,9.6
2019-04-29T07:25:03.722Z,9.6
2019-04-29T07:26:03.468Z,9.6
2019-04-29T07:27:04.603Z,9.6
2019-04-29T07:28:03.358Z,9.6
2019-04-29T07:29:03.135Z,9.5
2019-04-29T07:30:08.512Z,9.5
2019-04-29T07:31:03.439Z,9.6
2019-04-29T07:32:10.542Z,9.6
2019-04-29T07:33:05.782Z,9.6
2019-04-29T07:34:02.643Z,9.5
2019-04-29T07:35:11.370Z,9.5
2019-04-29T07:36:11.657Z,9.6
2019-04-29T07:37:03.837Z,9.6
2019-04-29T07:38:09.656Z,9.6
2019-04-29T07:39:03.644Z,9.6
2019-04-29T07:40:09.567Z,9.6
2019-04-29T07:41:03.804Z,9.4
2019-04-29T07:42:03.580Z,9.3
2019-04-29T07:43:09.643Z,9.3
2019-04-29T07:44:03.599Z,9.3
2019-04-29T07:45:03.699Z,9.4
2019-04-29T07:46:05.697Z,9.4
2019-04-29T07:47:03.481Z,9.4
2019-04-29T07:48:07.812Z,9.3
2019-04-29T07:49:05.964Z,9.3
2019-04-29T07:50:03.308Z,9.3
2019-04-29T07:51:06.058Z,9.2
2019-04-29T07:52:03.442Z,9.3
2019-04-29T07:53:03.542Z,9.3
2019-04-29T07:54:03.418Z,9.3
2019-04-29T07:55:03.235Z,9.4
2019-04-29T07:56:08.308Z,9.4
2019-04-29T07:57:02.998Z,9.5
2019-04-29T07:58:03.174Z,9.5
2019-04-29T07:59:04.744Z,9.5
2019-04-29T08:00:03.153Z,9.6
2019-04-29T08:01:02.883Z,9.6
2019-04-29T08:02:03.323Z,9.5
2019-04-29T08:03:03.038Z,9.5
2019-04-29T08:04:02.846Z,9.5
2019-04-29T08:05:03.965Z,9.5
2019-04-29T08:06:03.897Z,9.5
2019-04-29T08:07:03.624Z,9.4
2019-04-29T08:08:03.421Z,9.4
2019-04-29T08:09:09.890Z,9.4
2019-04-29T08:10:03.629Z,9.3
2019-04-29T08:11:03.518Z,9.3
2019-04-29T08:12:03.626Z,9.3
2019-04-29T08:13:03.343Z,9.3
2019-04-29T08:14:03.276Z,9.3
2019-04-29T08:15:09.288Z,9.3
2019-04-29T08:16:03.107Z,9.3
2019-04-29T08:17:03.149Z,9.4
2019-04-29T08:18:16.026Z,9.4
2019-04-29T08:19:05.629Z,9.4
2019-04-29T08:20:06.538Z,9.4
2019-04-29T08:21:02.764Z,9.4
2019-04-29T08:22:03.738Z,9.4
2019-04-29T08:23:04.310Z,9.4
2019-04-29T08:24:03.793Z,9.5
2019-04-29T08:25:03.935Z,9.4
2019-04-29T08:26:04.684Z,9.6
2019-04-29T08:27:03.787Z,9.6
2019-04-29T08:28:03.470Z,9.6
2019-04-29T08:29:03.493Z,9.6
2019-04-29T08:30:12.641Z,9.5
2019-04-29T08:31:03.987Z,9.5
2019-04-29T08:32:03.729Z,9.6
2019-04-29T08:33:07.619Z,9.6
2019-04-29T08:34:03.671Z,9.7
2019-04-29T08:35:03.557Z,9.8
2019-04-29T08:36:03.489Z,9.9
2019-04-29T08:37:03.425Z,9.9
2019-04-29T08:38:03.185Z,10.1
2019-04-29T08:39:09.208Z,10.1
2019-04-29T08:40:17.067Z,10.1
2019-04-29T08:41:02.681Z,10.2
2019-04-29T08:42:09.345Z,10.3
2019-04-29T08:43:03.102Z,10.3
2019-04-29T08:44:16.924Z,10.3
2019-04-29T08:45:02.968Z,10.3
2019-04-29T08:46:03.623Z,10.5
2019-04-29T08:47:03.890Z,10.6
2019-04-29T08:48:03.842Z,10.7
2019-04-29T08:49:09.691Z,10.8
2019-04-29T08:50:03.646Z,10.8
2019-04-29T08:51:03.662Z,10.8
2019-04-29T08:52:03.444Z,11
2019-04-29T08:53:03.242Z,10.9
2019-04-29T08:54:03.594Z,10.8
2019-04-29T08:55:03.919Z,11
2019-04-29T08:56:11.809Z,11.2
2019-04-29T08:57:04.542Z,11.3
2019-04-29T08:58:12.785Z,11.3
2019-04-29T08:59:03.502Z,11.2
2019-04-29T09:00:03.526Z,11.3
2019-04-29T09:01:03.399Z,11.4
2019-04-29T09:02:11.310Z,11.4
2019-04-29T09:03:03.379Z,11.3
2019-04-29T09:04:03.306Z,11.1
2019-04-29T09:05:13.029Z,11
2019-04-29T09:06:06.289Z,11
2019-04-29T09:07:21.355Z,11
2019-04-29T09:08:03.380Z,11.1
2019-04-29T09:09:20.389Z,11.3
2019-04-29T09:10:03.893Z,11.2
2019-04-29T09:11:03.395Z,11
2019-04-29T09:12:03.120Z,11.1
2019-04-29T09:13:03.374Z,11.1
2019-04-29T09:14:03.211Z,11.1
2019-04-29T09:15:03.405Z,11.1
2019-04-29T09:16:03.674Z,11.2
2019-04-29T09:17:20.708Z,11.1
2019-04-29T09:18:03.095Z,11.2
2019-04-29T09:19:03.209Z,11.3
2019-04-29T09:20:02.877Z,11.2
2019-04-29T09:21:03.000Z,11.1
2019-04-29T09:22:02.850Z,11.1
2019-04-29T09:23:03.689Z,11.1
2019-04-29T09:24:03.821Z,11.1
2019-04-29T09:25:03.682Z,11.1
2019-04-29T09:26:03.559Z,11.3
2019-04-29T09:27:11.136Z,11.4
2019-04-29T09:28:03.563Z,11.2
2019-04-29T09:29:05.609Z,11
2019-04-29T09:30:02.966Z,11
2019-04-29T09:31:03.436Z,11.1
2019-04-29T09:32:03.674Z,11.1
2019-04-29T09:33:03.706Z,11.3
2019-04-29T09:34:07.194Z,11.3
2019-04-29T09:35:03.592Z,11.4
2019-04-29T09:36:03.684Z,11.6
2019-04-29T09:37:03.405Z,11.6
2019-04-29T09:38:03.313Z,11.4
2019-04-29T09:39:03.785Z,11.4
2019-04-29T09:40:03.357Z,11.4
2019-04-29T09:41:03.212Z,11.8
2019-04-29T09:42:12.846Z,11.8
2019-04-29T09:43:16.098Z,11.7
2019-04-29T09:44:05.661Z,11.6
2019-04-29T09:45:03.098Z,11.6
2019-04-29T09:46:03.125Z,11.6
2019-04-29T09:47:10.150Z,11.4
2019-04-29T09:48:02.979Z,11.3
2019-04-29T09:49:03.015Z,11.3
2019-04-29T09:50:03.200Z,11.5
2019-04-29T09:51:22.352Z,11.5
2019-04-29T09:52:04.098Z,11.3
2019-04-29T09:53:03.841Z,11.3
2019-04-29T09:54:03.789Z,11.1
2019-04-29T09:55:05.940Z,11.3
2019-04-29T09:56:03.440Z,11.5
2019-04-29T09:57:03.748Z,11.5
2019-04-29T09:58:03.855Z,11.5
2019-04-29T09:59:03.150Z,11.4
2019-04-29T10:00:07.210Z,11.4
2019-04-29T10:01:03.674Z,11.4
2019-04-29T10:02:03.583Z,11.2
2019-04-29T10:03:03.540Z,11.3
2019-04-29T10:04:03.355Z,11.2
2019-04-29T10:05:03.114Z,11.3
2019-04-29T10:06:03.310Z,11.3
2019-04-29T10:07:03.061Z,11.3
2019-04-29T10:08:03.163Z,11.2
2019-04-29T10:09:03.408Z,11.3
2019-04-29T10:10:07.961Z,11.3
2019-04-29T10:11:03.095Z,11.3
2019-04-29T10:12:02.964Z,11.2
2019-04-29T10:13:02.709Z,11.1
2019-04-29T10:14:03.061Z,11.3
2019-04-29T10:15:03.199Z,11.2
2019-04-29T10:16:02.969Z,11.2
2019-04-29T10:17:03.745Z,11.2
2019-04-29T10:18:03.989Z,11.2
2019-04-29T10:19:07.077Z,11
2019-04-29T10:20:06.351Z,11
2019-04-29T10:21:03.866Z,11.2
2019-04-29T10:22:02.907Z,11.2
2019-04-29T10:23:03.140Z,11.1
2019-04-29T10:24:02.835Z,11.3
2019-04-29T10:25:03.369Z,11.3
2019-04-29T10:26:03.423Z,11.3
2019-04-29T10:27:03.225Z,11.4
2019-04-29T10:28:03.809Z,11.3
2019-04-29T10:29:03.592Z,11.1
2019-04-29T10:30:03.446Z,11.2
2019-04-29T10:31:03.046Z,11.3
2019-04-29T10:32:08.699Z,11.3
2019-04-29T10:33:03.316Z,11.3
2019-04-29T10:34:03.022Z,11.2
2019-04-29T10:35:10.769Z,11.3
2019-04-29T10:36:03.206Z,11.2
2019-04-29T10:37:03.168Z,11.1
2019-04-29T10:38:04.295Z,11.2
2019-04-29T10:39:03.269Z,11.3
2019-04-29T10:40:11.834Z,11.3
2019-04-29T10:41:02.972Z,11.3
2019-04-29T10:42:02.612Z,11.3
2019-04-29T10:43:03.874Z,11.4
2019-04-29T10:44:02.754Z,11.4
2019-04-29T10:45:04.012Z,11.3
2019-04-29T10:46:02.871Z,11.1
2019-04-29T10:47:03.698Z,11.1
2019-04-29T10:48:03.582Z,11.2
2019-04-29T10:49:05.401Z,11.4
2019-04-29T10:50:03.715Z,11.2
2019-04-29T10:51:03.622Z,11.3
2019-04-29T10:52:04.781Z,11.4
2019-04-29T10:53:03.759Z,11.2
2019-04-29T10:54:03.326Z,11.4
2019-04-29T10:55:03.589Z,11.5
2019-04-29T10:56:07.125Z,11.4
2019-04-29T10:57:03.421Z,11.3
2019-04-29T10:58:03.135Z,11.3
2019-04-29T10:59:11.029Z,11.4
2019-04-29T11:00:03.401Z,11.5
2019-04-29T11:01:03.514Z,11.6
2019-04-29T11:02:15.826Z,11.6
2019-04-29T11:03:03.872Z,11.4
2019-04-29T11:04:02.960Z,11.4
2019-04-29T11:05:03.180Z,11.4
2019-04-29T11:06:03.019Z,11.3
2019-04-29T11:07:18.637Z,11.3
2019-04-29T11:08:04.497Z,11.2
2019-04-29T11:09:03.881Z,11.2
2019-04-29T11:10:02.925Z,11.2
2019-04-29T11:11:03.386Z,10.9
2019-04-29T11:12:03.069Z,10.8
2019-04-29T11:13:03.641Z,10.8
2019-04-29T11:14:03.616Z,10.8
2019-04-29T11:15:03.807Z,10.8
2019-04-29T11:16:03.415Z,10.6
2019-04-29T11:17:03.627Z,10.6
2019-04-29T11:18:04.094Z,10.6
2019-04-29T11:19:06.080Z,10.6
2019-04-29T11:20:03.575Z,10.4
2019-04-29T11:21:03.710Z,10.3
2019-04-29T11:22:03.886Z,10.4
2019-04-29T11:23:03.753Z,10.3
2019-04-29T11:24:03.663Z,10.3
2019-04-29T11:25:03.509Z,10.3
2019-04-29T11:26:03.341Z,10.4
2019-04-29T11:27:12.690Z,10.4
2019-04-29T11:28:03.366Z,10.4
2019-04-29T11:29:09.604Z,10.3
2019-04-29T11:30:05.053Z,10.4
2019-04-29T11:31:03.267Z,10.4
2019-04-29T11:32:03.129Z,10.3
2019-04-29T11:33:06.337Z,10.3
2019-04-29T11:34:05.676Z,10.3
2019-04-29T11:35:02.787Z,10.3
2019-04-29T11:36:06.048Z,10.3
2019-04-29T11:37:03.487Z,10.1
2019-04-29T11:38:03.551Z,10.1
2019-04-29T11:39:03.845Z,10.1
2019-04-29T11:40:03.977Z,9.8
2019-04-29T11:41:04.016Z,9.8
2019-04-29T11:42:03.589Z,9.7
2019-04-29T11:43:03.914Z,9.6
2019-04-29T11:44:03.811Z,9.6
2019-04-29T11:45:04.010Z,9.6
2019-04-29T11:46:03.430Z,9.6
2019-04-29T11:47:03.480Z,9.6
2019-04-29T11:48:03.476Z,9.6
2019-04-29T11:49:02.365Z,9.6
2019-04-29T11:50:03.274Z,9.6
2019-04-29T11:51:03.177Z,9.6
2019-04-29T11:52:10.520Z,9.7
2019-04-29T11:53:03.364Z,9.8
2019-04-29T11:54:03.266Z,9.9
2019-04-29T11:55:03.397Z,9.9
2019-04-29T11:56:03.018Z,9.9
2019-04-29T11:57:03.444Z,9.9
2019-04-29T11:58:03.084Z,10.1
2019-04-29T11:59:03.271Z,10.1
2019-04-29T12:00:03.067Z,10.3
2019-04-29T12:01:08.833Z,10.2
2019-04-29T12:02:03.030Z,10.1
2019-04-29T12:03:02.991Z,10.3
2019-04-29T12:04:02.944Z,10.3
2019-04-29T12:05:10.106Z,10.2
2019-04-29T12:06:03.821Z,10.3
2019-04-29T12:07:02.908Z,10.3
2019-04-29T12:08:18.274Z,10.4
2019-04-29T12:09:06.961Z,10.3
2019-04-29T12:10:08.038Z,10.3
2019-04-29T12:11:07.738Z,10.3
2019-04-29T12:12:03.540Z,10.3
2019-04-29T12:13:03.663Z,10.1
2019-04-29T12:14:04.799Z,10
2019-04-29T12:15:03.816Z,9.9
2019-04-29T12:16:03.680Z,10.1
2019-04-29T12:17:03.432Z,10.1
2019-04-29T12:18:03.609Z,10.1
2019-04-29T12:19:03.729Z,10.2
2019-04-29T12:20:03.811Z,10.2
2019-04-29T12:21:03.667Z,10.1
2019-04-29T12:22:10.473Z,10
2019-04-29T12:23:03.639Z,10.1
2019-04-29T12:24:03.560Z,10.2
2019-04-29T12:25:03.719Z,10.3
2019-04-29T12:26:05.155Z,10.2
2019-04-29T12:27:03.395Z,10.2
2019-04-29T12:28:19.798Z,10.1
2019-04-29T12:29:03.515Z,10.1
2019-04-29T12:30:03.275Z,10.1
2019-04-29T12:31:11.395Z,10.1
2019-04-29T12:32:03.155Z,10.1
2019-04-29T12:33:03.445Z,10.1
2019-04-29T12:34:03.244Z,10.1
2019-04-29T12:35:03.265Z,10.1
2019-04-29T12:36:05.323Z,9.9
2019-04-29T12:37:03.241Z,9.9
2019-04-29T12:38:11.287Z,9.9
2019-04-29T12:39:03.305Z,9.7
2019-04-29T12:40:02.991Z,9.6
2019-04-29T12:41:02.947Z,9.5
2019-04-29T12:42:05.832Z,9.5
2019-04-29T12:43:03.185Z,9.6
2019-04-29T12:44:02.845Z,9.6
2019-04-29T12:45:03.407Z,9.6
2019-04-29T12:46:03.241Z,9.7
2019-04-29T12:47:02.820Z,9.7
2019-04-29T12:48:06.772Z,9.8
2019-04-29T12:49:13.740Z,9.9
2019-04-29T12:50:03.826Z,9.9
2019-04-29T12:51:02.919Z,9.9
2019-04-29T12:52:03.733Z,9.8
2019-04-29T12:53:03.913Z,9.7
2019-04-29T12:54:03.640Z,9.8
2019-04-29T12:55:42.779Z,9.8
2019-04-29T12:57:03.766Z,9.7
2019-04-29T12:58:03.438Z,9.6
2019-04-29T12:59:04.087Z,9.6
2019-04-29T13:00:09.269Z,9.4
2019-04-29T13:01:06.212Z,9.6
2019-04-29T13:02:04.584Z,9.7
2019-04-29T13:03:04.028Z,9.8
2019-04-29T13:04:03.231Z,9.6
2019-04-29T13:05:03.004Z,9.4
2019-04-29T13:06:03.454Z,9.4
2019-04-29T13:07:03.190Z,9.6
2019-04-29T13:08:03.331Z,9.6
2019-04-29T13:09:18.307Z,9.5
2019-04-29T13:10:08.675Z,9.4
2019-04-29T13:11:02.875Z,9.4
2019-04-29T13:12:20.206Z,9.3
2019-04-29T13:13:02.890Z,9.3
2019-04-29T13:14:03.802Z,9.3
2019-04-29T13:15:12.707Z,9.3
2019-04-29T13:16:03.027Z,9.2
2019-04-29T13:17:15.136Z,9.2
2019-04-29T13:18:16.950Z,9.3
2019-04-29T13:19:20.418Z,9.3
2019-04-29T13:20:12.978Z,9.3
2019-04-29T13:21:10.936Z,9.3
2019-04-29T13:22:03.399Z,9.3
2019-04-29T13:23:36.115Z,9.3
2019-04-29T13:24:25.180Z,9.3
2019-04-29T13:25:03.157Z,9.1
2019-04-29T13:26:03.233Z,9.1
2019-04-29T13:27:20.657Z,9.1
2019-04-29T13:28:05.376Z,9.1
2019-04-29T13:29:02.999Z,9.1
2019-04-29T13:30:16.298Z,9.1
2019-04-29T13:31:03.361Z,8.9
2019-04-29T13:32:03.042Z,8.9
2019-04-29T13:33:16.811Z,8.9
2019-04-29T13:34:25.646Z,8.9
2019-04-29T13:35:12.599Z,8.9
2019-04-29T13:36:03.024Z,8.9
2019-04-29T13:37:18.198Z,8.9
2019-04-29T13:38:02.940Z,8.9
2019-04-29T13:39:03.031Z,8.8
2019-04-29T13:40:03.266Z,8.8
2019-04-29T13:41:23.319Z,8.9